sensor_id;sensor_type;location;lat;lon;timestamp;pressure;altitude;pressure_sealevel;temperature;humidity
72525;BME280;60547;48.502;8.996;2022-09-23T00:01:20;98218.97;;;6.49;79.62
72525;BME280;60547;48.502;8.996;2022-09-23T00:03:46;98196.84;;;6.45;79.67
72525;BME280;60547;48.502;8.996;2022-09-23T00:06:20;98208.72;;;6.42;79.42
72525;BME280;60547;48.502;8.996;2022-09-23T00:08:46;98196.13;;;6.31;78.82
72525;BME280;60547;48.502;8.996;2022-09-23T00:11:25;98198.09;;;6.30;79.74
72525;BME280;60547;48.502;8.996;2022-09-23T00:13:53;98209.53;;;6.36;79.03
72525;BME280;60547;48.502;8.996;2022-09-23T00:16:23;98201.66;;;6.31;79.37
72525;BME280;60547;48.502;8.996;2022-09-23T00:18:49;98196.13;;;6.31;79.48
72525;BME280;60547;48.502;8.996;2022-09-23T00:21:16;98197.72;;;6.25;79.31
72525;BME280;60547;48.502;8.996;2022-09-23T00:23:42;98203.28;;;6.21;79.56
72525;BME280;60547;48.502;8.996;2022-09-23T00:26:10;98210.75;;;6.24;79.47
72525;BME280;60547;48.502;8.996;2022-09-23T00:28:36;98207.22;;;6.17;78.49
72525;BME280;60547;48.502;8.996;2022-09-23T00:31:08;98208.41;;;6.15;79.17
72525;BME280;60547;48.502;8.996;2022-09-23T00:33:34;98202.53;;;6.10;79.59
72525;BME280;60547;48.502;8.996;2022-09-23T00:36:01;98198.56;;;6.07;79.33
72525;BME280;60547;48.502;8.996;2022-09-23T00:38:27;98206.47;;;6.09;78.88
72525;BME280;60547;48.502;8.996;2022-09-23T00:40:52;98197.81;;;5.96;79.11
72525;BME280;60547;48.502;8.996;2022-09-23T00:43:18;98197.03;;;5.99;79.44
72525;BME280;60547;48.502;8.996;2022-09-23T00:45:47;98200.97;;;5.98;79.10
72525;BME280;60547;48.502;8.996;2022-09-23T00:48:16;98203.31;;;6.03;79.02
72525;BME280;60547;48.502;8.996;2022-09-23T00:50:48;98200.19;;;6.01;78.96
72525;BME280;60547;48.502;8.996;2022-09-23T00:53:17;98198.63;;;5.93;79.60
72525;BME280;60547;48.502;8.996;2022-09-23T00:55:54;98194.28;;;5.92;79.54
72525;BME280;60547;48.502;8.996;2022-09-23T00:58:24;98194.66;;;5.87;79.22
72525;BME280;60547;48.502;8.996;2022-09-23T01:00:52;98198.59;;;5.86;79.89
72525;BME280;60547;48.502;8.996;2022-09-23T01:03:18;98195.44;;;5.84;79.95
72525;BME280;60547;48.502;8.996;2022-09-23T01:05:44;98189.94;;;5.84;79.96
72525;BME280;60547;48.502;8.996;2022-09-23T01:08:11;98191.50;;;5.85;79.97
72525;BME280;60547;48.502;8.996;2022-09-23T01:15:53;98183.63;;;5.80;79.93
72525;BME280;60547;48.502;8.996;2022-09-23T01:21:13;98184.81;;;5.75;80.28
72525;BME280;60547;48.502;8.996;2022-09-23T01:35:25;98176.56;;;5.61;81.22
72525;BME280;60547;48.502;8.996;2022-09-23T01:43:59;98180.91;;;5.62;80.53
72525;BME280;60547;48.502;8.996;2022-09-23T01:46:38;98175.75;;;5.75;80.32
72525;BME280;60547;48.502;8.996;2022-09-23T01:49:13;98173.78;;;5.75;80.34
72525;BME280;60547;48.502;8.996;2022-09-23T01:51:44;98174.94;;;5.78;79.63
72525;BME280;60547;48.502;8.996;2022-09-23T01:54:34;98161.16;;;5.71;79.84
72525;BME280;60547;48.502;8.996;2022-09-23T01:57:14;98169.44;;;5.74;79.79
72525;BME280;60547;48.502;8.996;2022-09-23T02:00:00;98167.88;;;5.70;80.00
72525;BME280;60547;48.502;8.996;2022-09-23T02:02:40;98169.47;;;5.67;79.96
72525;BME280;60547;48.502;8.996;2022-09-23T02:05:21;98164.34;;;5.62;80.16
72525;BME280;60547;48.502;8.996;2022-09-23T02:07:53;98165.91;;;5.60;80.40
72525;BME280;60547;48.502;8.996;2022-09-23T02:10:27;98156.47;;;5.54;80.57
72525;BME280;60547;48.502;8.996;2022-09-23T02:13:01;98160.41;;;5.60;79.58
72525;BME280;60547;48.502;8.996;2022-09-23T02:15:36;98161.59;;;5.51;80.38
72525;BME280;60547;48.502;8.996;2022-09-23T02:18:13;98159.22;;;5.46;81.03
72525;BME280;60547;48.502;8.996;2022-09-23T02:20:40;98153.72;;;5.46;80.32
72525;BME280;60547;48.502;8.996;2022-09-23T02:23:11;98159.22;;;5.46;80.55
72525;BME280;60547;48.502;8.996;2022-09-23T02:28:15;98152.94;;;5.39;80.72
72525;BME280;60547;48.502;8.996;2022-09-23T02:31:33;98158.06;;;5.40;80.90
72525;BME280;60547;48.502;8.996;2022-09-23T02:34:15;98151.38;;;5.34;81.14
72525;BME280;60547;48.502;8.996;2022-09-23T02:37:01;98154.91;;;5.31;81.00
72525;BME280;60547;48.502;8.996;2022-09-23T02:39:49;98149.00;;;5.22;81.21
72525;BME280;60547;48.502;8.996;2022-09-23T02:42:23;98157.69;;;5.31;81.32
72525;BME280;60547;48.502;8.996;2022-09-23T02:44:49;98156.50;;;5.32;81.10
72525;BME280;60547;48.502;8.996;2022-09-23T02:47:16;98144.28;;;5.26;81.12
72525;BME280;60547;48.502;8.996;2022-09-23T02:49:44;98149.78;;;5.26;81.32
72525;BME280;60547;48.502;8.996;2022-09-23T02:52:10;98150.19;;;5.28;81.04
72525;BME280;60547;48.502;8.996;2022-09-23T02:54:38;98148.22;;;5.25;81.28
72525;BME280;60547;48.502;8.996;2022-09-23T02:57:05;98139.56;;;5.23;81.60
72525;BME280;60547;48.502;8.996;2022-09-23T02:59:33;98144.28;;;5.23;81.73
72525;BME280;60547;48.502;8.996;2022-09-23T03:04:55;98140.75;;;5.18;81.59
72525;BME280;60547;48.502;8.996;2022-09-23T03:10:30;98137.19;;;5.11;80.78
72525;BME280;60547;48.502;8.996;2022-09-23T03:15:37;98142.31;;;5.12;80.40
72525;BME280;60547;48.502;8.996;2022-09-23T03:18:16;98130.88;;;5.00;80.55
72525;BME280;60547;48.502;8.996;2022-09-23T03:20:45;98140.75;;;4.97;80.87
72525;BME280;60547;48.502;8.996;2022-09-23T03:23:18;98133.25;;;4.98;80.67
72525;BME280;60547;48.502;8.996;2022-09-23T03:25:46;98147.81;;;5.09;80.65
72525;BME280;60547;48.502;8.996;2022-09-23T03:28:15;98141.53;;;5.08;80.39
72525;BME280;60547;48.502;8.996;2022-09-23T03:30:41;98132.47;;;5.04;81.03
72525;BME280;60547;48.502;8.996;2022-09-23T03:33:10;98119.84;;;4.96;80.57
72525;BME280;60547;48.502;8.996;2022-09-23T03:35:43;98130.50;;;4.98;80.60
72525;BME280;60547;48.502;8.996;2022-09-23T03:38:34;98128.53;;;4.88;80.39
72525;BME280;60547;48.502;8.996;2022-09-23T03:41:02;98135.63;;;4.89;81.09
72525;BME280;60547;48.502;8.996;2022-09-23T03:43:29;98131.66;;;4.86;81.50
72525;BME280;60547;48.502;8.996;2022-09-23T03:45:55;98124.97;;;4.80;81.67
72525;BME280;60547;48.502;8.996;2022-09-23T03:48:22;98131.66;;;4.82;81.26
72525;BME280;60547;48.502;8.996;2022-09-23T03:50:51;98126.56;;;4.81;81.28
72525;BME280;60547;48.502;8.996;2022-09-23T03:53:16;98119.84;;;4.75;81.41
72525;BME280;60547;48.502;8.996;2022-09-23T03:55:45;98124.56;;;4.74;80.44
72525;BME280;60547;48.502;8.996;2022-09-23T03:58:11;98113.53;;;4.67;80.55
72525;BME280;60547;48.502;8.996;2022-09-23T04:00:37;98122.59;;;4.64;81.02
72525;BME280;60547;48.502;8.996;2022-09-23T04:03:03;98120.22;;;4.59;81.86
72525;BME280;60547;48.502;8.996;2022-09-23T04:05:28;98115.09;;;4.54;82.04
72525;BME280;60547;48.502;8.996;2022-09-23T04:07:54;98114.72;;;4.59;81.90
72525;BME280;60547;48.502;8.996;2022-09-23T04:10:19;98101.72;;;4.52;80.85
72525;BME280;60547;48.502;8.996;2022-09-23T04:12:45;98105.25;;;4.57;80.87
72525;BME280;60547;48.502;8.996;2022-09-23T04:15:10;98103.69;;;4.59;81.36
72525;BME280;60547;48.502;8.996;2022-09-23T04:17:36;98101.72;;;4.56;81.04
72525;BME280;60547;48.502;8.996;2022-09-23T04:20:02;98108.81;;;4.53;81.26
72525;BME280;60547;48.502;8.996;2022-09-23T04:22:27;98110.38;;;4.51;81.10
72525;BME280;60547;48.502;8.996;2022-09-23T04:24:52;98108.81;;;4.57;80.80
72525;BME280;60547;48.502;8.996;2022-09-23T04:27:18;98108.03;;;4.60;80.76
72525;BME280;60547;48.502;8.996;2022-09-23T04:29:43;98113.53;;;4.57;80.79
72525;BME280;60547;48.502;8.996;2022-09-23T04:32:09;98096.22;;;4.56;80.45
72525;BME280;60547;48.502;8.996;2022-09-23T04:34:34;98105.25;;;4.57;80.56
72525;BME280;60547;48.502;8.996;2022-09-23T04:37:00;98105.66;;;4.55;80.54
72525;BME280;60547;48.502;8.996;2022-09-23T04:39:25;98106.03;;;4.46;80.27
72525;BME280;60547;48.502;8.996;2022-09-23T04:41:50;98108.00;;;4.46;80.40
72525;BME280;60547;48.502;8.996;2022-09-23T04:44:16;98098.53;;;4.33;80.55
72525;BME280;60547;48.502;8.996;2022-09-23T04:46:42;98105.63;;;4.37;81.38
72525;BME280;60547;48.502;8.996;2022-09-23T04:49:10;98113.50;;;4.39;81.25
72525;BME280;60547;48.502;8.996;2022-09-23T04:51:37;98116.63;;;4.37;81.33
72525;BME280;60547;48.502;8.996;2022-09-23T04:54:04;98114.28;;;4.36;81.59
72525;BME280;60547;48.502;8.996;2022-09-23T04:56:30;98113.47;;;4.32;81.70
72525;BME280;60547;48.502;8.996;2022-09-23T04:58:56;98107.56;;;4.26;81.36
72525;BME280;60547;48.502;8.996;2022-09-23T05:01:25;98105.97;;;4.25;81.80
72525;BME280;60547;48.502;8.996;2022-09-23T05:03:52;98115.84;;;4.33;81.52
72525;BME280;60547;48.502;8.996;2022-09-23T05:06:19;98120.94;;;4.31;82.00
72525;BME280;60547;48.502;8.996;2022-09-23T05:08:50;98115.84;;;4.30;81.39
72525;BME280;60547;48.502;8.996;2022-09-23T05:11:16;98114.66;;;4.27;81.67
72525;BME280;60547;48.502;8.996;2022-09-23T05:13:46;98116.66;;;4.41;81.55
72525;BME280;60547;48.502;8.996;2022-09-23T05:16:11;98123.34;;;4.40;81.97
72525;BME280;60547;48.502;8.996;2022-09-23T05:18:39;98122.16;;;4.41;81.70
72525;BME280;60547;48.502;8.996;2022-09-23T05:21:20;98118.59;;;4.37;81.63
72525;BME280;60547;48.502;8.996;2022-09-23T05:23:50;98127.66;;;4.41;81.80
72525;BME280;60547;48.502;8.996;2022-09-23T05:26:20;98115.06;;;4.40;81.94
72525;BME280;60547;48.502;8.996;2022-09-23T05:28:46;98126.13;;;4.50;81.91
72525;BME280;60547;48.502;8.996;2022-09-23T05:31:14;98127.69;;;4.48;82.13
72525;BME280;60547;48.502;8.996;2022-09-23T05:33:43;98115.09;;;4.47;81.76
72525;BME280;60547;48.502;8.996;2022-09-23T05:36:10;98126.09;;;4.47;81.46
72525;BME280;60547;48.502;8.996;2022-09-23T05:38:36;98121.78;;;4.46;80.97
72525;BME280;60547;48.502;8.996;2022-09-23T05:41:10;98121.75;;;4.42;81.14
72525;BME280;60547;48.502;8.996;2022-09-23T05:43:36;98121.38;;;4.44;81.33
72525;BME280;60547;48.502;8.996;2022-09-23T05:46:10;98127.69;;;4.48;81.21
72525;BME280;60547;48.502;8.996;2022-09-23T05:48:37;98117.06;;;4.53;79.79
72525;BME280;60547;48.502;8.996;2022-09-23T05:51:03;98141.09;;;4.60;79.75
72525;BME280;60547;48.502;8.996;2022-09-23T05:53:31;98129.25;;;4.52;80.65
72525;BME280;60547;48.502;8.996;2022-09-23T05:55:57;98135.56;;;4.53;80.62
72525;BME280;60547;48.502;8.996;2022-09-23T05:58:22;98134.00;;;4.59;80.40
72525;BME280;60547;48.502;8.996;2022-09-23T06:00:49;98131.66;;;4.61;80.42
72525;BME280;60547;48.502;8.996;2022-09-23T06:03:19;98129.28;;;4.63;80.94
72525;BME280;60547;48.502;8.996;2022-09-23T06:05:45;98126.16;;;4.68;80.37
72525;BME280;60547;48.502;8.996;2022-09-23T06:08:11;98131.66;;;4.72;81.22
72525;BME280;60547;48.502;8.996;2022-09-23T06:10:42;98132.47;;;4.86;80.30
72525;BME280;60547;48.502;8.996;2022-09-23T06:13:07;98136.41;;;5.00;79.78
72525;BME280;60547;48.502;8.996;2022-09-23T06:15:34;98122.63;;;4.93;79.87
72525;BME280;60547;48.502;8.996;2022-09-23T06:18:00;98128.13;;;5.07;80.26
72525;BME280;60547;48.502;8.996;2022-09-23T06:20:26;98119.84;;;5.07;80.35
72525;BME280;60547;48.502;8.996;2022-09-23T06:22:52;98127.72;;;5.19;80.34
72525;BME280;60547;48.502;8.996;2022-09-23T06:25:18;98118.28;;;5.24;79.46
72525;BME280;60547;48.502;8.996;2022-09-23T06:27:51;98117.47;;;5.34;78.62
72525;BME280;60547;48.502;8.996;2022-09-23T06:30:19;98122.97;;;5.44;78.92
72525;BME280;60547;48.502;8.996;2022-09-23T06:32:48;98121.38;;;5.47;79.06
72525;BME280;60547;48.502;8.996;2022-09-23T06:35:17;98118.22;;;5.56;78.65
72525;BME280;60547;48.502;8.996;2022-09-23T06:37:42;98119.75;;;5.71;79.15
72525;BME280;60547;48.502;8.996;2022-09-23T06:40:08;98112.63;;;5.80;78.68
72525;BME280;60547;48.502;8.996;2022-09-23T06:42:34;98107.88;;;5.84;79.12
72525;BME280;60547;48.502;8.996;2022-09-23T06:44:59;98112.59;;;5.98;78.68
72525;BME280;60547;48.502;8.996;2022-09-23T06:47:26;98110.19;;;6.04;78.61
72525;BME280;60547;48.502;8.996;2022-09-23T06:49:53;98115.69;;;6.11;78.76
72525;BME280;60547;48.502;8.996;2022-09-23T06:52:18;98112.50;;;6.20;79.22
72525;BME280;60547;48.502;8.996;2022-09-23T06:54:46;98107.34;;;6.22;79.06
72525;BME280;60547;48.502;8.996;2022-09-23T06:57:13;98112.41;;;6.37;78.76
72525;BME280;60547;48.502;8.996;2022-09-23T06:59:38;98106.47;;;6.39;78.18
72525;BME280;60547;48.502;8.996;2022-09-23T07:02:04;98111.53;;;6.51;77.88
72525;BME280;60547;48.502;8.996;2022-09-23T07:04:29;98110.69;;;6.58;78.17
72525;BME280;60547;48.502;8.996;2022-09-23T07:06:55;98116.59;;;6.63;78.28
72525;BME280;60547;48.502;8.996;2022-09-23T07:09:20;98116.13;;;6.75;77.34
72525;BME280;60547;48.502;8.996;2022-09-23T07:11:46;98103.84;;;6.76;77.89
72525;BME280;60547;48.502;8.996;2022-09-23T07:14:11;98097.91;;;6.82;77.77
72525;BME280;60547;48.502;8.996;2022-09-23T07:16:38;98101.72;;;6.98;77.36
72525;BME280;60547;48.502;8.996;2022-09-23T07:19:04;98099.34;;;6.97;77.54
72525;BME280;60547;48.502;8.996;2022-09-23T07:21:30;98097.97;;;7.19;77.08
72525;BME280;60547;48.502;8.996;2022-09-23T07:23:55;98102.19;;;7.34;76.85
72525;BME280;60547;48.502;8.996;2022-09-23T07:26:22;98095.38;;;7.42;76.69
72525;BME280;60547;48.502;8.996;2022-09-23T07:28:55;98103.59;;;7.53;75.95
72525;BME280;60547;48.502;8.996;2022-09-23T07:31:22;98090.81;;;7.63;76.08
72525;BME280;60547;48.502;8.996;2022-09-23T07:33:48;98097.09;;;7.67;76.94
72525;BME280;60547;48.502;8.996;2022-09-23T07:36:16;98092.25;;;7.78;76.39
72525;BME280;60547;48.502;8.996;2022-09-23T07:38:43;98094.56;;;7.83;76.05
72525;BME280;60547;48.502;8.996;2022-09-23T07:41:10;98097.06;;;7.70;76.97
72525;BME280;60547;48.502;8.996;2022-09-23T07:43:37;98085.88;;;7.81;76.52
72525;BME280;60547;48.502;8.996;2022-09-23T07:46:07;98087.63;;;7.98;76.84
72525;BME280;60547;48.502;8.996;2022-09-23T07:48:34;98094.22;;;8.12;76.72
72525;BME280;60547;48.502;8.996;2022-09-23T07:51:12;98090.59;;;8.15;77.04
72525;BME280;60547;48.502;8.996;2022-09-23T07:53:37;98089.72;;;8.21;76.68
72525;BME280;60547;48.502;8.996;2022-09-23T07:56:03;98087.38;;;8.20;76.88
72525;BME280;60547;48.502;8.996;2022-09-23T07:58:31;98097.09;;;8.35;76.66
72525;BME280;60547;48.502;8.996;2022-09-23T08:01:07;98098.53;;;8.47;76.61
72525;BME280;60547;48.502;8.996;2022-09-23T08:03:35;98094.97;;;8.46;76.06
72525;BME280;60547;48.502;8.996;2022-09-23T08:06:08;98096.13;;;8.49;76.06
72525;BME280;60547;48.502;8.996;2022-09-23T08:08:35;98098.84;;;8.52;75.76
72525;BME280;60547;48.502;8.996;2022-09-23T08:11:04;98097.13;;;8.62;75.63
72525;BME280;60547;48.502;8.996;2022-09-23T08:13:32;98090.78;;;8.61;75.94
72525;BME280;60547;48.502;8.996;2022-09-23T08:15:57;98106.06;;;8.73;75.13
72525;BME280;60547;48.502;8.996;2022-09-23T08:18:23;98099.69;;;8.76;75.13
72525;BME280;60547;48.502;8.996;2022-09-23T08:20:49;98109.03;;;8.86;74.95
72525;BME280;60547;48.502;8.996;2022-09-23T08:23:15;98093.97;;;8.87;75.27
72525;BME280;60547;48.502;8.996;2022-09-23T08:25:42;98102.28;;;8.87;75.04
72525;BME280;60547;48.502;8.996;2022-09-23T08:28:09;98090.34;;;8.90;74.76
72525;BME280;60547;48.502;8.996;2022-09-23T08:30:37;98094.56;;;8.98;75.28
72525;BME280;60547;48.502;8.996;2022-09-23T08:33:03;98099.91;;;9.12;75.94
72525;BME280;60547;48.502;8.996;2022-09-23T08:35:29;98095.06;;;9.16;75.80
72525;BME280;60547;48.502;8.996;2022-09-23T08:37:54;98089.88;;;9.18;75.73
72525;BME280;60547;48.502;8.996;2022-09-23T08:40:19;98090.34;;;9.36;74.94
72525;BME280;60547;48.502;8.996;2022-09-23T08:42:45;98088.53;;;9.50;75.41
72525;BME280;60547;48.502;8.996;2022-09-23T08:45:20;98089.72;;;9.49;75.05
72525;BME280;60547;48.502;8.996;2022-09-23T08:47:51;98093.31;;;9.69;73.83
72525;BME280;60547;48.502;8.996;2022-09-23T08:50:28;98078.78;;;9.61;74.02
72525;BME280;60547;48.502;8.996;2022-09-23T08:52:58;98090.41;;;9.76;74.59
72525;BME280;60547;48.502;8.996;2022-09-23T08:55:33;98096.03;;;9.73;74.20
72525;BME280;60547;48.502;8.996;2022-09-23T08:58:23;98086.34;;;10.00;75.06
72525;BME280;60547;48.502;8.996;2022-09-23T09:03:50;98090.22;;;10.26;73.33
72525;BME280;60547;48.502;8.996;2022-09-23T09:06:21;98088.28;;;10.23;73.03
72525;BME280;60547;48.502;8.996;2022-09-23T09:08:54;98080.22;;;10.29;72.58
72525;BME280;60547;48.502;8.996;2022-09-23T09:11:23;98079.66;;;10.38;72.22
72525;BME280;60547;48.502;8.996;2022-09-23T09:14:18;98079.13;;;10.43;73.11
72525;BME280;60547;48.502;8.996;2022-09-23T09:16:55;98070.81;;;10.59;71.87
72525;BME280;60547;48.502;8.996;2022-09-23T09:22:20;98072.50;;;10.73;71.50
72525;BME280;60547;48.502;8.996;2022-09-23T09:24:47;98052.31;;;10.68;71.19
72525;BME280;60547;48.502;8.996;2022-09-23T09:27:13;98052.13;;;10.76;71.27
72525;BME280;60547;48.502;8.996;2022-09-23T09:29:45;98058.06;;;11.10;70.55
72525;BME280;60547;48.502;8.996;2022-09-23T09:32:39;98048.38;;;11.31;69.60
72525;BME280;60547;48.502;8.996;2022-09-23T09:35:35;98052.25;;;11.50;68.07
72525;BME280;60547;48.502;8.996;2022-09-23T09:38:03;98040.06;;;11.44;68.53
72525;BME280;60547;48.502;8.996;2022-09-23T09:40:30;98039.88;;;11.51;67.10
72525;BME280;60547;48.502;8.996;2022-09-23T09:42:56;98037.94;;;11.64;67.91
72525;BME280;60547;48.502;8.996;2022-09-23T09:48:07;98046.53;;;11.99;67.47
72525;BME280;60547;48.502;8.996;2022-09-23T09:50:51;98037.44;;;12.36;66.10
72525;BME280;60547;48.502;8.996;2022-09-23T09:53:20;98037.00;;;12.38;64.22
72525;BME280;60547;48.502;8.996;2022-09-23T09:58:22;98019.25;;;12.57;63.47
72525;BME280;60547;48.502;8.996;2022-09-23T10:00:48;98021.81;;;12.64;63.22
72525;BME280;60547;48.502;8.996;2022-09-23T10:08:30;98016.66;;;12.88;62.69
72525;BME280;60547;48.502;8.996;2022-09-23T10:11:20;98007.69;;;13.18;63.29
72525;BME280;60547;48.502;8.996;2022-09-23T10:14:05;98012.75;;;13.45;63.37
72525;BME280;60547;48.502;8.996;2022-09-23T10:16:34;98010.97;;;13.39;61.53
72525;BME280;60547;48.502;8.996;2022-09-23T10:19:03;98008.31;;;13.57;62.02
72525;BME280;60547;48.502;8.996;2022-09-23T10:21:36;98016.34;;;13.68;62.53
72525;BME280;60547;48.502;8.996;2022-09-23T10:24:06;98010.41;;;13.87;62.37
72525;BME280;60547;48.502;8.996;2022-09-23T10:26:37;98009.81;;;14.14;63.37
72525;BME280;60547;48.502;8.996;2022-09-23T10:29:32;97996.63;;;14.24;63.29
72525;BME280;60547;48.502;8.996;2022-09-23T10:32:28;97993.84;;;14.55;61.68
72525;BME280;60547;48.502;8.996;2022-09-23T10:35:14;97991.41;;;14.75;61.12
72525;BME280;60547;48.502;8.996;2022-09-23T10:37:43;97977.47;;;14.94;60.12
72525;BME280;60547;48.502;8.996;2022-09-23T10:43:19;97982.03;;;15.37;61.17
72525;BME280;60547;48.502;8.996;2022-09-23T10:46:07;97968.31;;;15.48;59.07
72525;BME280;60547;48.502;8.996;2022-09-23T10:52:22;97967.22;;;15.82;58.11
72525;BME280;60547;48.502;8.996;2022-09-23T10:55:14;97963.84;;;16.20;56.86
72525;BME280;60547;48.502;8.996;2022-09-23T11:08:41;97950.53;;;17.20;51.97
72525;BME280;60547;48.502;8.996;2022-09-23T11:11:30;97950.59;;;17.49;51.55
72525;BME280;60547;48.502;8.996;2022-09-23T11:20:09;97930.66;;;18.21;50.21
72525;BME280;60547;48.502;8.996;2022-09-23T11:36:43;97903.25;;;19.32;46.55
72525;BME280;60547;48.502;8.996;2022-09-23T11:39:24;97898.50;;;19.44;45.16
72525;BME280;60547;48.502;8.996;2022-09-23T11:41:54;97895.63;;;19.58;44.78
72525;BME280;60547;48.502;8.996;2022-09-23T11:44:24;97898.66;;;19.81;47.36
72525;BME280;60547;48.502;8.996;2022-09-23T11:46:58;97900.13;;;20.02;44.84
72525;BME280;60547;48.502;8.996;2022-09-23T11:49:33;97893.19;;;20.03;44.02
72525;BME280;60547;48.502;8.996;2022-09-23T11:54:43;97890.28;;;20.55;45.45
72525;BME280;60547;48.502;8.996;2022-09-23T11:57:26;97885.63;;;20.52;45.31
72525;BME280;60547;48.502;8.996;2022-09-23T11:59:59;97882.47;;;19.81;44.58
72525;BME280;60547;48.502;8.996;2022-09-23T12:02:32;97867.22;;;19.67;
72525;BME280;60547;48.502;8.996;2022-09-23T12:07:59;97874.59;;;20.54;43.13
72525;BME280;60547;48.502;8.996;2022-09-23T12:13:12;97853.38;;;20.38;44.12
72525;BME280;60547;48.502;8.996;2022-09-23T12:21:37;97865.59;;;21.15;42.59
72525;BME280;60547;48.502;8.996;2022-09-23T12:24:43;97861.31;;;21.25;41.78
72525;BME280;60547;48.502;8.996;2022-09-23T12:27:06;97854.56;;;21.17;41.69
72525;BME280;60547;48.502;8.996;2022-09-23T12:29:36;97854.28;;;21.15;41.32
72525;BME280;60547;48.502;8.996;2022-09-23T12:32:03;97845.03;;;21.20;41.99
72525;BME280;60547;48.502;8.996;2022-09-23T12:34:41;97852.53;;;21.23;44.22
72525;BME280;60547;48.502;8.996;2022-09-23T12:37:22;97833.69;;;21.09;40.61
72525;BME280;60547;48.502;8.996;2022-09-23T12:39:48;97831.97;;;20.63;41.39
72525;BME280;60547;48.502;8.996;2022-09-23T12:42:18;97835.19;;;20.99;41.47
72525;BME280;60547;48.502;8.996;2022-09-23T12:44:46;97830.69;;;21.29;41.43
72525;BME280;60547;48.502;8.996;2022-09-23T12:49:53;97829.94;;;21.51;41.77
72525;BME280;60547;48.502;8.996;2022-09-23T12:52:31;97820.69;;;21.73;41.25
72525;BME280;60547;48.502;8.996;2022-09-23T12:55:42;97814.00;;;21.70;39.96
72525;BME280;60547;48.502;8.996;2022-09-23T12:57:47;97815.81;;;21.90;39.19
72525;BME280;60547;48.502;8.996;2022-09-23T13:05:46;97790.31;;;21.79;38.90
72525;BME280;60547;48.502;8.996;2022-09-23T13:08:31;97788.50;;;21.53;36.85
72525;BME280;60547;48.502;8.996;2022-09-23T13:11:01;97804.19;;;21.49;38.07
72525;BME280;60547;48.502;8.996;2022-09-23T13:13:40;97795.94;;;21.28;36.31
72525;BME280;60547;48.502;8.996;2022-09-23T13:16:32;97793.91;;;21.40;36.45
72525;BME280;60547;48.502;8.996;2022-09-23T13:18:59;97795.19;;;21.50;36.59
72525;BME280;60547;48.502;8.996;2022-09-23T13:26:52;97784.88;;;21.25;38.82
72525;BME280;60547;48.502;8.996;2022-09-23T13:32:31;97796.28;;;20.77;38.83
72525;BME280;60547;48.502;8.996;2022-09-23T13:35:02;97783.75;;;20.94;40.88
72525;BME280;60547;48.502;8.996;2022-09-23T13:40:24;97776.75;;;20.84;39.41
72525;BME280;60547;48.502;8.996;2022-09-23T13:45:26;97776.75;;;20.79;39.93
72525;BME280;60547;48.502;8.996;2022-09-23T13:48:03;97780.38;;;20.37;42.02
72525;BME280;60547;48.502;8.996;2022-09-23T13:50:30;97768.78;;;20.29;41.18
72525;BME280;60547;48.502;8.996;2022-09-23T13:52:58;97780.88;;;20.29;39.35
72525;BME280;60547;48.502;8.996;2022-09-23T13:55:33;97762.91;;;20.32;39.13
72525;BME280;60547;48.502;8.996;2022-09-23T14:00:41;97775.69;;;20.22;40.71
72525;BME280;60547;48.502;8.996;2022-09-23T14:03:26;97775.84;;;20.45;42.57
72525;BME280;60547;48.502;8.996;2022-09-23T14:05:56;97765.72;;;20.32;43.39
72525;BME280;60547;48.502;8.996;2022-09-23T14:08:22;97761.94;;;20.41;42.06
72525;BME280;60547;48.502;8.996;2022-09-23T14:10:49;97771.97;;;20.42;40.89
72525;BME280;60547;48.502;8.996;2022-09-23T14:13:19;97757.59;;;20.46;40.58
72525;BME280;60547;48.502;8.996;2022-09-23T14:15:46;97768.53;;;20.32;40.99
72525;BME280;60547;48.502;8.996;2022-09-23T14:18:27;97756.66;;;20.17;41.58
72525;BME280;60547;48.502;8.996;2022-09-23T14:20:54;97757.94;;;20.16;40.97
72525;BME280;60547;48.502;8.996;2022-09-23T14:23:19;97757.38;;;20.12;42.02
72525;BME280;60547;48.502;8.996;2022-09-23T14:25:45;97751.44;;;20.05;42.25
72525;BME280;60547;48.502;8.996;2022-09-23T14:28:20;97750.81;;;19.89;42.66
72525;BME280;60547;48.502;8.996;2022-09-23T14:30:49;97742.84;;;19.88;43.72
72525;BME280;60547;48.502;8.996;2022-09-23T14:33:23;97744.38;;;19.83;42.17
72525;BME280;60547;48.502;8.996;2022-09-23T14:35:53;97739.69;;;19.75;40.41
72525;BME280;60547;48.502;8.996;2022-09-23T14:38:26;97750.94;;;19.69;41.81
72525;BME280;60547;48.502;8.996;2022-09-23T14:46:17;97745.06;;;19.73;40.63
72525;BME280;60547;48.502;8.996;2022-09-23T14:48:43;97739.41;;;19.73;40.81
72525;BME280;60547;48.502;8.996;2022-09-23T14:51:15;97741.97;;;19.71;40.13
72525;BME280;60547;48.502;8.996;2022-09-23T14:53:42;97737.22;;;19.88;39.73
72525;BME280;60547;48.502;8.996;2022-09-23T14:56:11;97742.72;;;20.08;38.98
72525;BME280;60547;48.502;8.996;2022-09-23T15:03:58;97753.38;;;20.30;42.42
72525;BME280;60547;48.502;8.996;2022-09-23T15:06:24;97732.66;;;20.02;43.60
72525;BME280;60547;48.502;8.996;2022-09-23T15:08:51;97733.59;;;19.87;44.43
72525;BME280;60547;48.502;8.996;2022-09-23T15:11:20;97732.03;;;19.81;44.50
72525;BME280;60547;48.502;8.996;2022-09-23T15:13:48;97726.88;;;19.79;45.49
72525;BME280;60547;48.502;8.996;2022-09-23T15:16:15;97727.50;;;19.57;45.69
72525;BME280;60547;48.502;8.996;2022-09-23T15:18:52;97730.31;;;19.57;45.59
72525;BME280;60547;48.502;8.996;2022-09-23T15:21:18;97729.94;;;19.44;45.92
72525;BME280;60547;48.502;8.996;2022-09-23T15:23:54;97732.94;;;19.35;45.74
72525;BME280;60547;48.502;8.996;2022-09-23T15:26:23;97727.19;;;19.24;46.13
72525;BME280;60547;48.502;8.996;2022-09-23T15:28:49;97741.06;;;19.27;46.27
72525;BME280;60547;48.502;8.996;2022-09-23T15:31:18;97733.34;;;19.22;47.07
72525;BME280;60547;48.502;8.996;2022-09-23T15:33:48;97730.69;;;19.13;47.06
72525;BME280;60547;48.502;8.996;2022-09-23T15:36:19;97731.31;;;18.97;47.57
72525;BME280;60547;48.502;8.996;2022-09-23T15:38:45;97738.16;;;18.90;50.36
72525;BME280;60547;48.502;8.996;2022-09-23T15:41:11;97738.16;;;18.90;52.24
72525;BME280;60547;48.502;8.996;2022-09-23T15:43:39;97728.75;;;18.73;51.89
72525;BME280;60547;48.502;8.996;2022-09-23T15:46:20;97744.41;;;18.74;51.11